26°C Temp
2°C Dewpoint
% Humidity
Temperature
14 KM/H
9 MPH
8 KTS
210°
South South
West

Wind Speed
Despejado
Pressure 1014.92 (hPa) - 29.97 (in)
Visibility 6.2 (mi) - 10.0 (km)

Current Conditions
LEVC
Location 70(km)
Metar :LEVC 161630Z 21008KT 170V240 CAVOK 26/02 Q1015 NOSIG
Wed 16th October 18:30 pm

Airport
  Metar Aviation API Data Provided by https://www.checkwx.com/ PHP scripts by weather34.com ©2019